sensor_id;sensor_type;location;lat;lon;timestamp;P1;durP1;ratioP1;P2;durP2;ratioP2
8642;SDS011;4359;49.358;11.256;2023-06-05T00:01:58;4.63;;;2.88;;
8642;SDS011;4359;49.358;11.256;2023-06-05T00:04:24;7.13;;;2.90;;
8642;SDS011;4359;49.358;11.256;2023-06-05T00:06:50;6.22;;;2.88;;
8642;SDS011;4359;49.358;11.256;2023-06-05T00:09:18;4.18;;;2.97;;
8642;SDS011;4359;49.358;11.256;2023-06-05T00:11:44;4.35;;;2.60;;
8642;SDS011;4359;49.358;11.256;2023-06-05T00:14:10;6.38;;;2.80;;
8642;SDS011;4359;49.358;11.256;2023-06-05T00:16:35;7.45;;;2.90;;
8642;SDS011;4359;49.358;11.256;2023-06-05T00:19:01;5.93;;;3.03;;
8642;SDS011;4359;49.358;11.256;2023-06-05T00:21:28;4.78;;;2.78;;
8642;SDS011;4359;49.358;11.256;2023-06-05T00:23:54;4.70;;;2.78;;
8642;SDS011;4359;49.358;11.256;2023-06-05T00:26:19;4.93;;;2.67;;
8642;SDS011;4359;49.358;11.256;2023-06-05T00:28:46;6.68;;;2.70;;
8642;SDS011;4359;49.358;11.256;2023-06-05T00:31:12;3.63;;;2.30;;
8642;SDS011;4359;49.358;11.256;2023-06-05T00:33:38;5.18;;;2.42;;
8642;SDS011;4359;49.358;11.256;2023-06-05T00:36:04;5.78;;;2.47;;
8642;SDS011;4359;49.358;11.256;2023-06-05T00:38:30;7.45;;;3.05;;
8642;SDS011;4359;49.358;11.256;2023-06-05T00:40:56;5.80;;;2.30;;
8642;SDS011;4359;49.358;11.256;2023-06-05T00:43:22;4.40;;;2.00;;
8642;SDS011;4359;49.358;11.256;2023-06-05T00:45:48;3.13;;;1.98;;
8642;SDS011;4359;49.358;11.256;2023-06-05T00:48:15;4.15;;;2.13;;
8642;SDS011;4359;49.358;11.256;2023-06-05T00:50:41;7.60;;;2.33;;
8642;SDS011;4359;49.358;11.256;2023-06-05T00:53:07;5.05;;;2.40;;
8642;SDS011;4359;49.358;11.256;2023-06-05T00:55:33;7.13;;;2.20;;
8642;SDS011;4359;49.358;11.256;2023-06-05T00:58:02;4.15;;;2.13;;
8642;SDS011;4359;49.358;11.256;2023-06-05T01:00:29;5.13;;;2.60;;
8642;SDS011;4359;49.358;11.256;2023-06-05T01:02:55;4.78;;;1.90;;
8642;SDS011;4359;49.358;11.256;2023-06-05T01:05:22;5.65;;;2.10;;
8642;SDS011;4359;49.358;11.256;2023-06-05T01:07:49;5.13;;;1.90;;
8642;SDS011;4359;49.358;11.256;2023-06-05T01:10:14;3.33;;;1.90;;
8642;SDS011;4359;49.358;11.256;2023-06-05T01:12:43;7.10;;;2.22;;
8642;SDS011;4359;49.358;11.256;2023-06-05T01:15:10;5.38;;;1.90;;
8642;SDS011;4359;49.358;11.256;2023-06-05T01:17:37;3.38;;;1.88;;
8642;SDS011;4359;49.358;11.256;2023-06-05T01:20:03;4.75;;;1.77;;
8642;SDS011;4359;49.358;11.256;2023-06-05T01:22:33;6.80;;;1.70;;
8642;SDS011;4359;49.358;11.256;2023-06-05T01:24:59;6.10;;;2.00;;
8642;SDS011;4359;49.358;11.256;2023-06-05T01:30:21;3.67;;;1.83;;
8642;SDS011;4359;49.358;11.256;2023-06-05T01:32:56;3.70;;;1.73;;
8642;SDS011;4359;49.358;11.256;2023-06-05T01:35:28;3.47;;;1.80;;
8642;SDS011;4359;49.358;11.256;2023-06-05T01:37:58;3.20;;;2.05;;
8642;SDS011;4359;49.358;11.256;2023-06-05T01:40:28;3.25;;;1.77;;
8642;SDS011;4359;49.358;11.256;2023-06-05T01:42:56;5.05;;;2.10;;
8642;SDS011;4359;49.358;11.256;2023-06-05T01:45:23;4.55;;;2.17;;
8642;SDS011;4359;49.358;11.256;2023-06-05T01:47:48;4.07;;;1.73;;
8642;SDS011;4359;49.358;11.256;2023-06-05T01:50:15;3.60;;;2.03;;
8642;SDS011;4359;49.358;11.256;2023-06-05T01:52:42;3.38;;;1.80;;
8642;SDS011;4359;49.358;11.256;2023-06-05T01:55:15;6.82;;;2.20;;
8642;SDS011;4359;49.358;11.256;2023-06-05T01:57:43;6.57;;;2.20;;
8642;SDS011;4359;49.358;11.256;2023-06-05T02:00:09;4.20;;;2.00;;
8642;SDS011;4359;49.358;11.256;2023-06-05T02:02:44;3.05;;;1.83;;
8642;SDS011;4359;49.358;11.256;2023-06-05T02:05:12;5.22;;;2.22;;
8642;SDS011;4359;49.358;11.256;2023-06-05T02:07:40;3.78;;;1.95;;
8642;SDS011;4359;49.358;11.256;2023-06-05T02:10:09;6.15;;;2.08;;
8642;SDS011;4359;49.358;11.256;2023-06-05T02:12:35;3.20;;;1.85;;
8642;SDS011;4359;49.358;11.256;2023-06-05T02:15:06;3.85;;;2.30;;
8642;SDS011;4359;49.358;11.256;2023-06-05T02:17:33;4.82;;;2.40;;
8642;SDS011;4359;49.358;11.256;2023-06-05T02:19:59;4.65;;;2.00;;
8642;SDS011;4359;49.358;11.256;2023-06-05T02:22:26;3.55;;;1.80;;
8642;SDS011;4359;49.358;11.256;2023-06-05T02:24:52;3.67;;;2.08;;
8642;SDS011;4359;49.358;11.256;2023-06-05T02:27:18;5.28;;;2.10;;
8642;SDS011;4359;49.358;11.256;2023-06-05T02:29:44;4.72;;;2.10;;
8642;SDS011;4359;49.358;11.256;2023-06-05T02:32:10;3.58;;;2.10;;
8642;SDS011;4359;49.358;11.256;2023-06-05T02:34:36;4.30;;;1.90;;
8642;SDS011;4359;49.358;11.256;2023-06-05T02:37:02;3.20;;;1.98;;
8642;SDS011;4359;49.358;11.256;2023-06-05T02:39:28;4.03;;;1.92;;
8642;SDS011;4359;49.358;11.256;2023-06-05T02:41:56;4.15;;;2.38;;
8642;SDS011;4359;49.358;11.256;2023-06-05T02:44:22;3.83;;;1.85;;
8642;SDS011;4359;49.358;11.256;2023-06-05T02:46:48;3.67;;;1.77;;
8642;SDS011;4359;49.358;11.256;2023-06-05T02:49:13;6.85;;;2.10;;
8642;SDS011;4359;49.358;11.256;2023-06-05T02:51:39;5.30;;;2.13;;
8642;SDS011;4359;49.358;11.256;2023-06-05T02:54:05;4.70;;;2.08;;
8642;SDS011;4359;49.358;11.256;2023-06-05T02:56:31;4.28;;;2.38;;
8642;SDS011;4359;49.358;11.256;2023-06-05T02:58:57;6.32;;;1.95;;
8642;SDS011;4359;49.358;11.256;2023-06-05T03:01:23;3.88;;;2.05;;
8642;SDS011;4359;49.358;11.256;2023-06-05T03:03:50;5.35;;;2.17;;
8642;SDS011;4359;49.358;11.256;2023-06-05T03:06:18;3.47;;;1.85;;
8642;SDS011;4359;49.358;11.256;2023-06-05T03:08:44;4.60;;;2.00;;
8642;SDS011;4359;49.358;11.256;2023-06-05T03:11:10;5.28;;;2.30;;
8642;SDS011;4359;49.358;11.256;2023-06-05T03:13:36;3.30;;;2.00;;
8642;SDS011;4359;49.358;11.256;2023-06-05T03:16:01;4.63;;;2.30;;
8642;SDS011;4359;49.358;11.256;2023-06-05T03:18:27;4.95;;;1.95;;
8642;SDS011;4359;49.358;11.256;2023-06-05T03:20:53;5.75;;;2.22;;
8642;SDS011;4359;49.358;11.256;2023-06-05T03:23:23;3.25;;;1.88;;
8642;SDS011;4359;49.358;11.256;2023-06-05T03:25:53;4.68;;;1.92;;
8642;SDS011;4359;49.358;11.256;2023-06-05T03:28:20;6.90;;;2.78;;
8642;SDS011;4359;49.358;11.256;2023-06-05T03:30:46;3.60;;;2.00;;
8642;SDS011;4359;49.358;11.256;2023-06-05T03:33:12;4.28;;;2.28;;
8642;SDS011;4359;49.358;11.256;2023-06-05T03:35:39;3.33;;;2.10;;
8642;SDS011;4359;49.358;11.256;2023-06-05T03:38:05;4.50;;;1.80;;
8642;SDS011;4359;49.358;11.256;2023-06-05T03:40:31;3.33;;;1.85;;
8642;SDS011;4359;49.358;11.256;2023-06-05T03:42:56;5.10;;;2.10;;
8642;SDS011;4359;49.358;11.256;2023-06-05T03:45:22;5.03;;;2.30;;
8642;SDS011;4359;49.358;11.256;2023-06-05T03:47:51;5.63;;;2.40;;
8642;SDS011;4359;49.358;11.256;2023-06-05T03:50:17;4.40;;;2.30;;
8642;SDS011;4359;49.358;11.256;2023-06-05T03:52:43;7.97;;;2.40;;
8642;SDS011;4359;49.358;11.256;2023-06-05T03:55:08;4.00;;;2.08;;
8642;SDS011;4359;49.358;11.256;2023-06-05T03:57:35;4.13;;;2.15;;
8642;SDS011;4359;49.358;11.256;2023-06-05T04:00:03;3.75;;;2.30;;
8642;SDS011;4359;49.358;11.256;2023-06-05T04:02:34;4.35;;;1.98;;
8642;SDS011;4359;49.358;11.256;2023-06-05T04:05:01;5.95;;;2.30;;
8642;SDS011;4359;49.358;11.256;2023-06-05T04:07:28;5.35;;;2.40;;
8642;SDS011;4359;49.358;11.256;2023-06-05T04:09:54;3.60;;;2.10;;
8642;SDS011;4359;49.358;11.256;2023-06-05T04:12:20;7.50;;;2.25;;
8642;SDS011;4359;49.358;11.256;2023-06-05T04:14:46;7.32;;;2.33;;
8642;SDS011;4359;49.358;11.256;2023-06-05T04:17:11;3.72;;;2.25;;
8642;SDS011;4359;49.358;11.256;2023-06-05T04:19:38;4.50;;;2.30;;
8642;SDS011;4359;49.358;11.256;2023-06-05T04:22:04;6.93;;;2.70;;
8642;SDS011;4359;49.358;11.256;2023-06-05T04:24:30;4.25;;;2.30;;
8642;SDS011;4359;49.358;11.256;2023-06-05T04:26:56;5.35;;;2.50;;
8642;SDS011;4359;49.358;11.256;2023-06-05T04:29:26;6.63;;;2.53;;
8642;SDS011;4359;49.358;11.256;2023-06-05T04:31:51;4.60;;;2.38;;
8642;SDS011;4359;49.358;11.256;2023-06-05T04:34:17;4.32;;;2.40;;
8642;SDS011;4359;49.358;11.256;2023-06-05T04:36:43;5.95;;;2.10;;
8642;SDS011;4359;49.358;11.256;2023-06-05T04:39:09;4.68;;;2.25;;
8642;SDS011;4359;49.358;11.256;2023-06-05T04:41:42;6.00;;;2.60;;
8642;SDS011;4359;49.358;11.256;2023-06-05T04:44:15;4.13;;;2.30;;
8642;SDS011;4359;49.358;11.256;2023-06-05T04:46:42;5.22;;;2.38;;
8642;SDS011;4359;49.358;11.256;2023-06-05T04:49:11;7.47;;;2.30;;
8642;SDS011;4359;49.358;11.256;2023-06-05T04:51:38;12.20;;;2.33;;
8642;SDS011;4359;49.358;11.256;2023-06-05T04:54:04;3.88;;;2.10;;
8642;SDS011;4359;49.358;11.256;2023-06-05T04:56:30;5.82;;;2.05;;
8642;SDS011;4359;49.358;11.256;2023-06-05T04:58:57;6.60;;;2.20;;
8642;SDS011;4359;49.358;11.256;2023-06-05T05:01:24;6.47;;;2.10;;
8642;SDS011;4359;49.358;11.256;2023-06-05T05:03:50;6.65;;;2.40;;
8642;SDS011;4359;49.358;11.256;2023-06-05T05:06:16;6.20;;;2.10;;
8642;SDS011;4359;49.358;11.256;2023-06-05T05:08:43;7.57;;;2.88;;
8642;SDS011;4359;49.358;11.256;2023-06-05T05:11:11;5.90;;;2.42;;
8642;SDS011;4359;49.358;11.256;2023-06-05T05:13:37;8.48;;;2.35;;
8642;SDS011;4359;49.358;11.256;2023-06-05T05:16:03;6.35;;;2.40;;
8642;SDS011;4359;49.358;11.256;2023-06-05T05:18:29;4.55;;;1.90;;
8642;SDS011;4359;49.358;11.256;2023-06-05T05:20:55;5.65;;;2.10;;
8642;SDS011;4359;49.358;11.256;2023-06-05T05:23:20;5.72;;;2.30;;
8642;SDS011;4359;49.358;11.256;2023-06-05T05:25:46;5.13;;;2.15;;
8642;SDS011;4359;49.358;11.256;2023-06-05T05:28:13;4.32;;;2.05;;
8642;SDS011;4359;49.358;11.256;2023-06-05T05:30:38;9.15;;;2.30;;
8642;SDS011;4359;49.358;11.256;2023-06-05T05:33:04;4.03;;;2.20;;
8642;SDS011;4359;49.358;11.256;2023-06-05T05:35:30;4.72;;;2.30;;
8642;SDS011;4359;49.358;11.256;2023-06-05T05:37:56;6.75;;;2.35;;
8642;SDS011;4359;49.358;11.256;2023-06-05T05:40:22;5.78;;;2.20;;
8642;SDS011;4359;49.358;11.256;2023-06-05T05:42:47;7.88;;;2.50;;
8642;SDS011;4359;49.358;11.256;2023-06-05T05:45:13;5.50;;;2.33;;
8642;SDS011;4359;49.358;11.256;2023-06-05T05:47:39;4.88;;;2.08;;
8642;SDS011;4359;49.358;11.256;2023-06-05T05:50:05;4.35;;;2.33;;
8642;SDS011;4359;49.358;11.256;2023-06-05T05:52:31;4.95;;;2.20;;
8642;SDS011;4359;49.358;11.256;2023-06-05T05:54:57;12.60;;;2.78;;
8642;SDS011;4359;49.358;11.256;2023-06-05T05:57:24;5.55;;;2.70;;
8642;SDS011;4359;49.358;11.256;2023-06-05T05:59:50;4.65;;;2.30;;
8642;SDS011;4359;49.358;11.256;2023-06-05T06:02:16;4.10;;;2.25;;
8642;SDS011;4359;49.358;11.256;2023-06-05T06:04:42;6.68;;;2.78;;
8642;SDS011;4359;49.358;11.256;2023-06-05T06:07:11;4.55;;;2.22;;
8642;SDS011;4359;49.358;11.256;2023-06-05T06:09:37;8.18;;;2.70;;
8642;SDS011;4359;49.358;11.256;2023-06-05T06:12:03;9.40;;;2.90;;
8642;SDS011;4359;49.358;11.256;2023-06-05T06:14:31;4.35;;;2.30;;
8642;SDS011;4359;49.358;11.256;2023-06-05T06:16:57;9.10;;;2.90;;
8642;SDS011;4359;49.358;11.256;2023-06-05T06:19:23;5.38;;;2.50;;
8642;SDS011;4359;49.358;11.256;2023-06-05T06:21:50;14.73;;;3.33;;
8642;SDS011;4359;49.358;11.256;2023-06-05T06:24:16;7.85;;;2.80;;
8642;SDS011;4359;49.358;11.256;2023-06-05T06:26:45;7.88;;;2.85;;
8642;SDS011;4359;49.358;11.256;2023-06-05T06:29:13;6.57;;;2.30;;
8642;SDS011;4359;49.358;11.256;2023-06-05T06:31:40;13.40;;;3.38;;
8642;SDS011;4359;49.358;11.256;2023-06-05T06:34:07;6.70;;;2.50;;
8642;SDS011;4359;49.358;11.256;2023-06-05T06:36:35;4.45;;;2.58;;
8642;SDS011;4359;49.358;11.256;2023-06-05T06:39:05;19.35;;;3.50;;
8642;SDS011;4359;49.358;11.256;2023-06-05T06:41:33;8.00;;;3.17;;
8642;SDS011;4359;49.358;11.256;2023-06-05T06:44:00;6.65;;;2.75;;
8642;SDS011;4359;49.358;11.256;2023-06-05T06:46:26;7.75;;;3.15;;
8642;SDS011;4359;49.358;11.256;2023-06-05T06:48:51;8.15;;;2.63;;
8642;SDS011;4359;49.358;11.256;2023-06-05T06:51:17;6.00;;;2.90;;
8642;SDS011;4359;49.358;11.256;2023-06-05T06:53:43;8.52;;;3.30;;
8642;SDS011;4359;49.358;11.256;2023-06-05T06:56:09;7.63;;;3.08;;
8642;SDS011;4359;49.358;11.256;2023-06-05T06:58:35;6.38;;;2.95;;
8642;SDS011;4359;49.358;11.256;2023-06-05T07:01:01;6.57;;;2.83;;
8642;SDS011;4359;49.358;11.256;2023-06-05T07:03:28;4.38;;;2.60;;
8642;SDS011;4359;49.358;11.256;2023-06-05T07:05:54;9.98;;;3.70;;
8642;SDS011;4359;49.358;11.256;2023-06-05T07:08:20;8.13;;;3.20;;
8642;SDS011;4359;49.358;11.256;2023-06-05T07:10:46;8.55;;;3.08;;
8642;SDS011;4359;49.358;11.256;2023-06-05T07:13:11;7.32;;;3.15;;
8642;SDS011;4359;49.358;11.256;2023-06-05T07:15:37;9.43;;;2.97;;
8642;SDS011;4359;49.358;11.256;2023-06-05T07:18:03;7.45;;;3.13;;
8642;SDS011;4359;49.358;11.256;2023-06-05T07:20:28;7.00;;;2.95;;
8642;SDS011;4359;49.358;11.256;2023-06-05T07:22:54;9.68;;;3.60;;
8642;SDS011;4359;49.358;11.256;2023-06-05T07:25:20;6.30;;;2.90;;
8642;SDS011;4359;49.358;11.256;2023-06-05T07:27:49;6.93;;;2.95;;
8642;SDS011;4359;49.358;11.256;2023-06-05T07:30:15;8.95;;;3.13;;
8642;SDS011;4359;49.358;11.256;2023-06-05T07:32:41;5.50;;;2.97;;
8642;SDS011;4359;49.358;11.256;2023-06-05T07:35:08;6.13;;;2.95;;
8642;SDS011;4359;49.358;11.256;2023-06-05T07:37:34;5.30;;;3.08;;
8642;SDS011;4359;49.358;11.256;2023-06-05T07:40:00;4.75;;;2.60;;
8642;SDS011;4359;49.358;11.256;2023-06-05T07:42:26;9.20;;;3.30;;
8642;SDS011;4359;49.358;11.256;2023-06-05T07:44:52;7.38;;;3.53;;
8642;SDS011;4359;49.358;11.256;2023-06-05T07:47:17;12.52;;;4.25;;
8642;SDS011;4359;49.358;11.256;2023-06-05T07:49:43;5.40;;;3.42;;
8642;SDS011;4359;49.358;11.256;2023-06-05T07:52:09;8.32;;;3.38;;
8642;SDS011;4359;49.358;11.256;2023-06-05T07:54:35;5.50;;;3.10;;
8642;SDS011;4359;49.358;11.256;2023-06-05T07:57:01;8.25;;;3.38;;
8642;SDS011;4359;49.358;11.256;2023-06-05T07:59:27;9.27;;;3.10;;
8642;SDS011;4359;49.358;11.256;2023-06-05T08:01:53;7.80;;;4.00;;
8642;SDS011;4359;49.358;11.256;2023-06-05T08:04:19;9.80;;;3.92;;
8642;SDS011;4359;49.358;11.256;2023-06-05T08:06:46;6.28;;;3.15;;
8642;SDS011;4359;49.358;11.256;2023-06-05T08:09:12;8.40;;;3.30;;
8642;SDS011;4359;49.358;11.256;2023-06-05T08:11:39;8.05;;;3.70;;
8642;SDS011;4359;49.358;11.256;2023-06-05T08:14:06;11.02;;;3.75;;
8642;SDS011;4359;49.358;11.256;2023-06-05T08:16:33;7.68;;;3.40;;
8642;SDS011;4359;49.358;11.256;2023-06-05T08:18:59;6.00;;;3.85;;
8642;SDS011;4359;49.358;11.256;2023-06-05T08:21:25;6.20;;;3.35;;
8642;SDS011;4359;49.358;11.256;2023-06-05T08:23:50;5.63;;;3.45;;
8642;SDS011;4359;49.358;11.256;2023-06-05T08:26:18;8.60;;;3.60;;
8642;SDS011;4359;49.358;11.256;2023-06-05T08:28:45;8.75;;;3.55;;
8642;SDS011;4359;49.358;11.256;2023-06-05T08:31:10;9.30;;;3.20;;
8642;SDS011;4359;49.358;11.256;2023-06-05T08:33:37;9.77;;;3.35;;
8642;SDS011;4359;49.358;11.256;2023-06-05T08:36:03;6.38;;;3.40;;
8642;SDS011;4359;49.358;11.256;2023-06-05T08:38:32;8.57;;;3.17;;
8642;SDS011;4359;49.358;11.256;2023-06-05T08:41:02;9.07;;;3.50;;
8642;SDS011;4359;49.358;11.256;2023-06-05T08:43:30;7.57;;;3.03;;
8642;SDS011;4359;49.358;11.256;2023-06-05T08:45:57;8.35;;;3.50;;
8642;SDS011;4359;49.358;11.256;2023-06-05T08:48:23;6.90;;;2.95;;
8642;SDS011;4359;49.358;11.256;2023-06-05T08:50:50;6.07;;;3.28;;
8642;SDS011;4359;49.358;11.256;2023-06-05T08:53:17;6.60;;;3.20;;
8642;SDS011;4359;49.358;11.256;2023-06-05T08:55:46;5.72;;;3.00;;
8642;SDS011;4359;49.358;11.256;2023-06-05T08:58:16;7.20;;;3.20;;
8642;SDS011;4359;49.358;11.256;2023-06-05T09:00:42;9.88;;;3.80;;
8642;SDS011;4359;49.358;11.256;2023-06-05T09:03:10;6.40;;;3.72;;
8642;SDS011;4359;49.358;11.256;2023-06-05T09:05:40;4.95;;;3.13;;
8642;SDS011;4359;49.358;11.256;2023-06-05T09:08:05;7.03;;;3.10;;
8642;SDS011;4359;49.358;11.256;2023-06-05T09:10:31;8.35;;;3.88;;
8642;SDS011;4359;49.358;11.256;2023-06-05T09:12:58;7.88;;;3.50;;
8642;SDS011;4359;49.358;11.256;2023-06-05T09:15:26;12.27;;;3.70;;
8642;SDS011;4359;49.358;11.256;2023-06-05T09:18:03;5.35;;;3.13;;
8642;SDS011;4359;49.358;11.256;2023-06-05T09:20:45;10.55;;;3.28;;
8642;SDS011;4359;49.358;11.256;2023-06-05T09:23:21;7.28;;;3.50;;
8642;SDS011;4359;49.358;11.256;2023-06-05T09:25:57;5.63;;;3.45;;
8642;SDS011;4359;49.358;11.256;2023-06-05T09:28:24;7.55;;;3.28;;
8642;SDS011;4359;49.358;11.256;2023-06-05T09:30:54;4.82;;;3.22;;
8642;SDS011;4359;49.358;11.256;2023-06-05T09:33:28;6.85;;;3.22;;
8642;SDS011;4359;49.358;11.256;2023-06-05T09:38:29;7.35;;;3.50;;
8642;SDS011;4359;49.358;11.256;2023-06-05T09:41:11;9.35;;;3.30;;
8642;SDS011;4359;49.358;11.256;2023-06-05T09:43:45;7.22;;;3.28;;
8642;SDS011;4359;49.358;11.256;2023-06-05T09:46:14;5.05;;;3.10;;
8642;SDS011;4359;49.358;11.256;2023-06-05T09:48:41;6.53;;;3.60;;
8642;SDS011;4359;49.358;11.256;2023-06-05T09:53:42;6.63;;;3.35;;
8642;SDS011;4359;49.358;11.256;2023-06-05T09:56:13;6.10;;;3.08;;
8642;SDS011;4359;49.358;11.256;2023-06-05T09:58:46;4.78;;;3.28;;
8642;SDS011;4359;49.358;11.256;2023-06-05T10:01:17;5.15;;;3.00;;
8642;SDS011;4359;49.358;11.256;2023-06-05T10:06:24;10.45;;;2.90;;
8642;SDS011;4359;49.358;11.256;2023-06-05T10:08:53;5.25;;;3.13;;
8642;SDS011;4359;49.358;11.256;2023-06-05T10:11:20;7.03;;;3.30;;
8642;SDS011;4359;49.358;11.256;2023-06-05T10:13:47;12.90;;;3.85;;
8642;SDS011;4359;49.358;11.256;2023-06-05T10:16:14;5.40;;;2.78;;
8642;SDS011;4359;49.358;11.256;2023-06-05T10:18:47;6.40;;;3.03;;
8642;SDS011;4359;49.358;11.256;2023-06-05T10:21:16;9.02;;;3.50;;
8642;SDS011;4359;49.358;11.256;2023-06-05T10:23:49;5.47;;;2.88;;
8642;SDS011;4359;49.358;11.256;2023-06-05T10:32:01;8.82;;;2.92;;
8642;SDS011;4359;49.358;11.256;2023-06-05T10:37:38;7.80;;;2.78;;
8642;SDS011;4359;49.358;11.256;2023-06-05T10:40:23;9.32;;;2.97;;
8642;SDS011;4359;49.358;11.256;2023-06-05T10:42:50;5.38;;;2.92;;
8642;SDS011;4359;49.358;11.256;2023-06-05T10:45:34;6.22;;;2.83;;
8642;SDS011;4359;49.358;11.256;2023-06-05T10:47:59;3.47;;;2.42;;
8642;SDS011;4359;49.358;11.256;2023-06-05T10:50:25;4.07;;;2.50;;
8642;SDS011;4359;49.358;11.256;2023-06-05T10:52:54;3.88;;;2.63;;
8642;SDS011;4359;49.358;11.256;2023-06-05T10:55:23;6.18;;;2.92;;
8642;SDS011;4359;49.358;11.256;2023-06-05T11:00:35;5.20;;;2.50;;
8642;SDS011;4359;49.358;11.256;2023-06-05T11:03:02;7.63;;;2.60;;
8642;SDS011;4359;49.358;11.256;2023-06-05T11:05:28;5.50;;;2.20;;
8642;SDS011;4359;49.358;11.256;2023-06-05T11:11:05;9.20;;;2.65;;
8642;SDS011;4359;49.358;11.256;2023-06-05T11:16:32;4.55;;;2.28;;
8642;SDS011;4359;49.358;11.256;2023-06-05T11:19:43;5.38;;;2.15;;
8642;SDS011;4359;49.358;11.256;2023-06-05T11:24:29;5.07;;;2.25;;
8642;SDS011;4359;49.358;11.256;2023-06-05T11:26:55;3.97;;;2.45;;
8642;SDS011;4359;49.358;11.256;2023-06-05T11:29:21;6.15;;;2.40;;
8642;SDS011;4359;49.358;11.256;2023-06-05T11:31:50;5.95;;;2.08;;
8642;SDS011;4359;49.358;11.256;2023-06-05T11:34:17;4.65;;;2.40;;
8642;SDS011;4359;49.358;11.256;2023-06-05T11:36:42;5.50;;;1.90;;
8642;SDS011;4359;49.358;11.256;2023-06-05T11:39:10;6.55;;;2.17;;
8642;SDS011;4359;49.358;11.256;2023-06-05T11:41:43;8.75;;;2.65;;
8642;SDS011;4359;49.358;11.256;2023-06-05T11:46:42;5.57;;;2.38;;
8642;SDS011;4359;49.358;11.256;2023-06-05T11:49:21;3.83;;;2.30;;
8642;SDS011;4359;49.358;11.256;2023-06-05T11:51:49;5.35;;;2.15;;
8642;SDS011;4359;49.358;11.256;2023-06-05T11:54:25;9.27;;;2.90;;
8642;SDS011;4359;49.358;11.256;2023-06-05T11:56:56;3.17;;;1.67;;
8642;SDS011;4359;49.358;11.256;2023-06-05T11:59:22;4.20;;;1.98;;
8642;SDS011;4359;49.358;11.256;2023-06-05T12:01:49;2.90;;;2.00;;
8642;SDS011;4359;49.358;11.256;2023-06-05T12:04:19;4.10;;;2.10;;
8642;SDS011;4359;49.358;11.256;2023-06-05T12:06:45;5.68;;;2.15;;
8642;SDS011;4359;49.358;11.256;2023-06-05T12:09:13;4.38;;;2.47;;
8642;SDS011;4359;49.358;11.256;2023-06-05T12:11:41;5.50;;;2.10;;
8642;SDS011;4359;49.358;11.256;2023-06-05T12:14:09;3.65;;;2.15;;
8642;SDS011;4359;49.358;11.256;2023-06-05T12:16:36;5.88;;;2.20;;
8642;SDS011;4359;49.358;11.256;2023-06-05T12:19:10;3.80;;;2.00;;
8642;SDS011;4359;49.358;11.256;2023-06-05T12:21:37;4.15;;;1.90;;
8642;SDS011;4359;49.358;11.256;2023-06-05T12:24:03;6.32;;;2.00;;
8642;SDS011;4359;49.358;11.256;2023-06-05T12:26:51;2.85;;;1.80;;
8642;SDS011;4359;49.358;11.256;2023-06-05T12:29:22;3.50;;;1.90;;
8642;SDS011;4359;49.358;11.256;2023-06-05T12:31:49;2.97;;;2.03;;
8642;SDS011;4359;49.358;11.256;2023-06-05T12:34:16;3.65;;;1.90;;
8642;SDS011;4359;49.358;11.256;2023-06-05T12:36:42;6.53;;;1.75;;
8642;SDS011;4359;49.358;11.256;2023-06-05T12:39:09;5.70;;;2.03;;
8642;SDS011;4359;49.358;11.256;2023-06-05T12:41:36;4.28;;;1.73;;
8642;SDS011;4359;49.358;11.256;2023-06-05T12:44:02;3.28;;;2.10;;
8642;SDS011;4359;49.358;11.256;2023-06-05T12:46:29;4.28;;;1.75;;
8642;SDS011;4359;49.358;11.256;2023-06-05T12:48:57;2.65;;;1.60;;
8642;SDS011;4359;49.358;11.256;2023-06-05T12:51:27;4.65;;;1.75;;
8642;SDS011;4359;49.358;11.256;2023-06-05T12:53:56;4.60;;;1.77;;
8642;SDS011;4359;49.358;11.256;2023-06-05T12:56:23;5.57;;;1.95;;
8642;SDS011;4359;49.358;11.256;2023-06-05T12:58:53;11.23;;;1.95;;
8642;SDS011;4359;49.358;11.256;2023-06-05T13:01:21;4.00;;;1.80;;
8642;SDS011;4359;49.358;11.256;2023-06-05T13:03:48;3.50;;;1.55;;
8642;SDS011;4359;49.358;11.256;2023-06-05T13:06:13;2.45;;;1.50;;
8642;SDS011;4359;49.358;11.256;2023-06-05T13:08:39;3.28;;;1.30;;
8642;SDS011;4359;49.358;11.256;2023-06-05T13:11:05;3.42;;;1.67;;
8642;SDS011;4359;49.358;11.256;2023-06-05T13:13:31;2.38;;;1.40;;
8642;SDS011;4359;49.358;11.256;2023-06-05T13:15:58;1.88;;;1.17;;
8642;SDS011;4359;49.358;11.256;2023-06-05T13:18:24;2.33;;;1.50;;
8642;SDS011;4359;49.358;11.256;2023-06-05T13:20:50;3.95;;;1.73;;
8642;SDS011;4359;49.358;11.256;2023-06-05T13:23:15;2.55;;;1.50;;
8642;SDS011;4359;49.358;11.256;2023-06-05T13:25:41;7.20;;;1.90;;
8642;SDS011;4359;49.358;11.256;2023-06-05T13:28:07;6.57;;;1.60;;
8642;SDS011;4359;49.358;11.256;2023-06-05T13:30:32;2.55;;;1.60;;
8642;SDS011;4359;49.358;11.256;2023-06-05T13:32:59;2.20;;;1.40;;
8642;SDS011;4359;49.358;11.256;2023-06-05T13:35:24;3.15;;;1.85;;
8642;SDS011;4359;49.358;11.256;2023-06-05T13:37:50;2.42;;;1.45;;
8642;SDS011;4359;49.358;11.256;2023-06-05T13:40:17;2.38;;;1.40;;
8642;SDS011;4359;49.358;11.256;2023-06-05T13:42:42;2.10;;;1.23;;
8642;SDS011;4359;49.358;11.256;2023-06-05T13:45:08;5.35;;;1.70;;
8642;SDS011;4359;49.358;11.256;2023-06-05T13:47:35;15.02;;;1.98;;
8642;SDS011;4359;49.358;11.256;2023-06-05T13:50:01;4.03;;;1.90;;
8642;SDS011;4359;49.358;11.256;2023-06-05T13:52:27;12.10;;;1.98;;
8642;SDS011;4359;49.358;11.256;2023-06-05T13:54:53;4.28;;;1.85;;
8642;SDS011;4359;49.358;11.256;2023-06-05T13:57:19;5.18;;;2.10;;
8642;SDS011;4359;49.358;11.256;2023-06-05T13:59:44;8.02;;;2.15;;
8642;SDS011;4359;49.358;11.256;2023-06-05T14:02:11;5.32;;;2.10;;
8642;SDS011;4359;49.358;11.256;2023-06-05T14:04:37;3.95;;;1.85;;
8642;SDS011;4359;49.358;11.256;2023-06-05T14:07:03;4.10;;;1.80;;
8642;SDS011;4359;49.358;11.256;2023-06-05T14:09:29;9.73;;;2.45;;
8642;SDS011;4359;49.358;11.256;2023-06-05T14:11:55;3.53;;;2.00;;
8642;SDS011;4359;49.358;11.256;2023-06-05T14:14:22;4.53;;;2.10;;
8642;SDS011;4359;49.358;11.256;2023-06-05T14:16:48;5.10;;;2.30;;
8642;SDS011;4359;49.358;11.256;2023-06-05T14:19:15;2.85;;;2.00;;
8642;SDS011;4359;49.358;11.256;2023-06-05T14:21:41;5.82;;;2.20;;
8642;SDS011;4359;49.358;11.256;2023-06-05T14:24:07;5.63;;;2.45;;
8642;SDS011;4359;49.358;11.256;2023-06-05T14:26:33;6.10;;;2.42;;
8642;SDS011;4359;49.358;11.256;2023-06-05T14:28:59;4.05;;;2.13;;
8642;SDS011;4359;49.358;11.256;2023-06-05T14:31:25;4.00;;;2.08;;
8642;SDS011;4359;49.358;11.256;2023-06-05T14:33:52;6.40;;;2.15;;
8642;SDS011;4359;49.358;11.256;2023-06-05T14:36:18;3.47;;;2.20;;
8642;SDS011;4359;49.358;11.256;2023-06-05T14:38:44;4.30;;;1.92;;
8642;SDS011;4359;49.358;11.256;2023-06-05T14:41:09;4.05;;;2.40;;
8642;SDS011;4359;49.358;11.256;2023-06-05T14:43:35;4.68;;;2.25;;
8642;SDS011;4359;49.358;11.256;2023-06-05T14:46:01;6.38;;;2.17;;
8642;SDS011;4359;49.358;11.256;2023-06-05T14:48:27;11.65;;;2.63;;
8642;SDS011;4359;49.358;11.256;2023-06-05T14:50:53;4.18;;;2.60;;
8642;SDS011;4359;49.358;11.256;2023-06-05T14:53:19;4.72;;;2.47;;
8642;SDS011;4359;49.358;11.256;2023-06-05T14:55:45;5.00;;;2.30;;
8642;SDS011;4359;49.358;11.256;2023-06-05T14:58:10;5.15;;;2.53;;
8642;SDS011;4359;49.358;11.256;2023-06-05T15:00:37;4.75;;;2.38;;
8642;SDS011;4359;49.358;11.256;2023-06-05T15:03:03;4.13;;;2.50;;
8642;SDS011;4359;49.358;11.256;2023-06-05T15:05:30;4.90;;;2.53;;
8642;SDS011;4359;49.358;11.256;2023-06-05T15:07:57;6.38;;;2.83;;
8642;SDS011;4359;49.358;11.256;2023-06-05T15:10:23;8.23;;;2.30;;
8642;SDS011;4359;49.358;11.256;2023-06-05T15:12:50;6.65;;;2.80;;
8642;SDS011;4359;49.358;11.256;2023-06-05T15:15:21;3.92;;;2.17;;
8642;SDS011;4359;49.358;11.256;2023-06-05T15:17:47;8.52;;;1.95;;
8642;SDS011;4359;49.358;11.256;2023-06-05T15:20:14;5.53;;;2.10;;
8642;SDS011;4359;49.358;11.256;2023-06-05T15:22:40;5.57;;;2.47;;
8642;SDS011;4359;49.358;11.256;2023-06-05T15:25:05;4.57;;;2.20;;
8642;SDS011;4359;49.358;11.256;2023-06-05T15:27:31;4.05;;;2.50;;
8642;SDS011;4359;49.358;11.256;2023-06-05T15:29:59;6.63;;;2.50;;
8642;SDS011;4359;49.358;11.256;2023-06-05T15:32:24;7.80;;;2.28;;
8642;SDS011;4359;49.358;11.256;2023-06-05T15:34:50;8.40;;;2.17;;